Time;durP1;ratioP1;P1;durP2;ratioP2;P2;SDS_P1;SDS_P2;PMS_P1;PMS_P2;Temp;Humidity;BMP_temperature;BMP_pressure;BME280_temperature;BME280_humidity;BME280_pressure;Samples;Min_cycle;Max_cycle;Signal;HPM_P1;HPM_P2
2024/03/03 00:01:05;;;;;;;7.80;4.72;;;;;;;;;;4994400;28;20078;-71
2024/03/03 00:03:31;;;;;;;7.80;4.18;;;;;;;;;;5019134;28;20038;-71
2024/03/03 00:05:58;;;;;;;7.15;4.40;;;;;;;;;;5011206;28;20392;-72
2024/03/03 00:08:24;;;;;;;8.27;4.60;;;;;;;;;;5024256;28;20041;-71
2024/03/03 00:10:52;;;;;;;10.40;4.80;;;;;;;;;;5023318;28;20504;-71
2024/03/03 00:13:18;;;;;;;7.55;4.32;;;;;;;;;;5018802;28;20461;-71
2024/03/03 00:15:44;;;;;;;10.13;4.60;;;;;;;;;;5023238;28;20041;-71
2024/03/03 00:18:11;;;;;;;9.02;4.03;;;;;;;;;;5019135;28;20501;-71
2024/03/03 00:20:37;;;;;;;8.82;4.32;;;;;;;;;;5021497;28;20524;-72
2024/03/03 00:23:03;;;;;;;7.28;4.75;;;;;;;;;;5021010;28;21204;-72
2024/03/03 00:25:29;;;;;;;6.75;4.38;;;;;;;;;;5018834;28;20057;-72
2024/03/03 00:27:56;;;;;;;9.00;5.07;;;;;;;;;;5022997;28;20037;-72
2024/03/03 00:30:22;;;;;;;8.18;4.72;;;;;;;;;;5023268;28;20130;-71
2024/03/03 00:32:48;;;;;;;8.55;4.38;;;;;;;;;;5018253;28;20423;-72
2024/03/03 00:35:14;;;;;;;8.50;4.90;;;;;;;;;;5019806;28;20037;-71
2024/03/03 00:37:41;;;;;;;8.40;4.80;;;;;;;;;;5018687;28;20126;-72
2024/03/03 00:40:07;;;;;;;9.80;4.75;;;;;;;;;;5023045;28;20116;-72
2024/03/03 00:42:33;;;;;;;8.73;4.82;;;;;;;;;;5020882;28;20056;-72
2024/03/03 00:45:00;;;;;;;8.93;4.45;;;;;;;;;;5022532;28;20418;-71
2024/03/03 00:47:26;;;;;;;8.95;4.57;;;;;;;;;;5020635;28;20465;-72
2024/03/03 00:49:52;;;;;;;7.55;4.97;;;;;;;;;;5022871;28;20045;-71
2024/03/03 00:52:18;;;;;;;8.05;4.60;;;;;;;;;;5021626;28;20046;-71
2024/03/03 00:54:44;;;;;;;8.45;5.10;;;;;;;;;;5028658;28;20060;-72
2024/03/03 00:57:10;;;;;;;8.43;4.88;;;;;;;;;;5018647;28;20132;-72
2024/03/03 00:59:37;;;;;;;10.15;5.45;;;;;;;;;;5007197;28;20107;-72
2024/03/03 01:02:03;;;;;;;9.68;4.95;;;;;;;;;;5021525;28;20052;-71
2024/03/03 01:04:29;;;;;;;10.60;5.43;;;;;;;;;;5019586;28;20053;-71
2024/03/03 01:06:55;;;;;;;8.25;4.95;;;;;;;;;;5020302;28;20445;-71
2024/03/03 01:09:22;;;;;;;9.55;4.80;;;;;;;;;;5023447;28;20061;-71
2024/03/03 01:11:53;;;;;;;9.10;4.95;;;;;;;;;;5018758;28;20052;-71
2024/03/03 01:14:19;;;;;;;7.43;5.00;;;;;;;;;;5018653;28;21048;-72
2024/03/03 01:16:46;;;;;;;7.55;4.88;;;;;;;;;;5021314;28;20033;-71
2024/03/03 01:19:12;;;;;;;8.93;5.03;;;;;;;;;;5024409;28;20393;-71
2024/03/03 01:21:39;;;;;;;7.95;4.72;;;;;;;;;;5024326;28;20191;-71
2024/03/03 01:24:06;;;;;;;8.13;5.35;;;;;;;;;;5021193;28;20126;-72
2024/03/03 01:26:32;;;;;;;7.57;4.90;;;;;;;;;;5019569;28;20131;-72
2024/03/03 01:28:58;;;;;;;8.98;5.40;;;;;;;;;;5017161;28;20448;-72
2024/03/03 01:31:25;;;;;;;8.30;5.45;;;;;;;;;;5024630;28;20122;-71
2024/03/03 01:33:51;;;;;;;9.68;5.70;;;;;;;;;;5018723;28;20053;-72
2024/03/03 01:36:17;;;;;;;8.18;4.90;;;;;;;;;;5019886;28;20049;-71
2024/03/03 01:38:43;;;;;;;9.68;5.05;;;;;;;;;;5005153;28;20041;-72
2024/03/03 01:41:09;;;;;;;9.98;5.43;;;;;;;;;;5017362;28;20045;-71
2024/03/03 01:43:35;;;;;;;10.23;5.85;;;;;;;;;;5008982;28;20137;-71
2024/03/03 01:46:02;;;;;;;8.70;4.90;;;;;;;;;;5018799;28;20141;-72
2024/03/03 01:48:28;;;;;;;7.68;4.82;;;;;;;;;;5020162;28;20049;-71
2024/03/03 01:50:55;;;;;;;8.15;5.63;;;;;;;;;;5020646;28;20103;-72
2024/03/03 01:53:22;;;;;;;12.88;5.85;;;;;;;;;;5022304;28;20516;-72
2024/03/03 01:55:48;;;;;;;10.45;5.85;;;;;;;;;;5018360;28;20136;-72
2024/03/03 01:58:16;;;;;;;9.10;5.53;;;;;;;;;;5018457;28;20069;-72
2024/03/03 02:00:42;;;;;;;9.90;5.32;;;;;;;;;;5017278;28;20142;-72
2024/03/03 02:03:09;;;;;;;9.93;6.22;;;;;;;;;;5019484;28;20053;-72
2024/03/03 02:05:36;;;;;;;8.57;6.03;;;;;;;;;;5020635;28;20128;-72
2024/03/03 02:08:03;;;;;;;8.75;5.07;;;;;;;;;;5019241;28;20041;-72
2024/03/03 02:10:30;;;;;;;9.57;5.55;;;;;;;;;;5019382;28;20395;-71
2024/03/03 02:12:57;;;;;;;8.88;5.43;;;;;;;;;;5016397;28;20056;-72
2024/03/03 02:15:23;;;;;;;10.80;5.80;;;;;;;;;;5018442;28;20563;-71
2024/03/03 02:17:50;;;;;;;10.98;6.15;;;;;;;;;;5022660;28;20156;-71
2024/03/03 02:20:16;;;;;;;8.43;5.70;;;;;;;;;;5024866;28;20064;-72
2024/03/03 02:22:42;;;;;;;9.55;6.13;;;;;;;;;;5027415;28;20051;-72
2024/03/03 02:25:09;;;;;;;11.38;6.15;;;;;;;;;;5024528;28;20121;-71
2024/03/03 02:27:37;;;;;;;8.02;5.55;;;;;;;;;;5024812;28;20197;-72
2024/03/03 02:30:03;;;;;;;11.25;6.22;;;;;;;;;;5024433;28;20060;-72
2024/03/03 02:32:30;;;;;;;11.30;6.28;;;;;;;;;;5025575;28;20103;-73
2024/03/03 02:34:57;;;;;;;11.27;6.30;;;;;;;;;;5022639;28;20050;-73
2024/03/03 02:37:23;;;;;;;8.10;5.65;;;;;;;;;;5024865;28;20802;-72
2024/03/03 02:39:49;;;;;;;9.65;5.85;;;;;;;;;;5019720;28;20053;-73
2024/03/03 02:42:15;;;;;;;9.63;5.60;;;;;;;;;;5019791;28;20135;-73
2024/03/03 02:44:42;;;;;;;7.95;5.43;;;;;;;;;;5023440;28;20060;-72
2024/03/03 02:47:08;;;;;;;10.45;6.50;;;;;;;;;;5025744;28;20049;-72
2024/03/03 02:49:34;;;;;;;9.98;6.45;;;;;;;;;;5022998;28;20095;-73
2024/03/03 02:52:00;;;;;;;10.30;5.88;;;;;;;;;;5027647;28;20045;-73
2024/03/03 02:54:28;;;;;;;9.95;6.35;;;;;;;;;;5021251;28;20046;-72
2024/03/03 02:56:54;;;;;;;12.90;6.78;;;;;;;;;;5026962;28;20089;-73
2024/03/03 02:59:20;;;;;;;9.93;6.32;;;;;;;;;;5022688;28;20048;-73
2024/03/03 03:01:46;;;;;;;9.57;6.65;;;;;;;;;;5020565;28;20053;-73
2024/03/03 03:04:13;;;;;;;10.45;6.57;;;;;;;;;;5022255;28;20049;-72
2024/03/03 03:06:39;;;;;;;11.88;6.38;;;;;;;;;;5018077;28;20045;-73
2024/03/03 03:09:05;;;;;;;8.93;5.97;;;;;;;;;;5022985;28;20049;-72
2024/03/03 03:11:32;;;;;;;10.10;6.97;;;;;;;;;;5040413;28;20068;-72
2024/03/03 03:13:58;;;;;;;12.10;6.38;;;;;;;;;;5035402;28;20051;-72
2024/03/03 03:16:24;;;;;;;11.90;6.93;;;;;;;;;;5031941;28;20045;-72
2024/03/03 03:18:50;;;;;;;13.20;7.40;;;;;;;;;;5033536;28;20046;-73
2024/03/03 03:21:16;;;;;;;9.73;6.22;;;;;;;;;;5030019;28;20144;-72
2024/03/03 03:23:42;;;;;;;13.52;7.70;;;;;;;;;;5027186;28;20134;-73
2024/03/03 03:26:09;;;;;;;11.40;7.72;;;;;;;;;;5017356;28;20068;-73
2024/03/03 03:28:35;;;;;;;11.43;6.88;;;;;;;;;;5033433;28;20037;-72
2024/03/03 03:31:02;;;;;;;10.70;6.95;;;;;;;;;;5036789;28;20488;-72
2024/03/03 03:33:28;;;;;;;12.82;7.22;;;;;;;;;;5030720;28;20453;-72
2024/03/03 03:35:54;;;;;;;12.10;7.43;;;;;;;;;;5027803;28;20114;-73
2024/03/03 03:38:20;;;;;;;11.80;7.35;;;;;;;;;;5036516;28;20047;-72
2024/03/03 03:40:46;;;;;;;12.40;7.07;;;;;;;;;;5027072;28;20086;-73
2024/03/03 03:43:13;;;;;;;11.60;7.80;;;;;;;;;;5025274;28;20106;-73
2024/03/03 03:45:39;;;;;;;12.48;7.10;;;;;;;;;;5024366;28;20045;-72
2024/03/03 03:48:05;;;;;;;13.55;8.35;;;;;;;;;;5021647;28;20449;-72
2024/03/03 03:50:31;;;;;;;12.23;7.32;;;;;;;;;;5022300;28;20057;-73
2024/03/03 03:52:58;;;;;;;12.30;7.50;;;;;;;;;;5026805;28;20046;-72
2024/03/03 03:55:24;;;;;;;13.65;7.68;;;;;;;;;;5019123;28;20121;-72
2024/03/03 03:57:50;;;;;;;14.95;8.05;;;;;;;;;;5024027;28;20096;-72
2024/03/03 04:00:16;;;;;;;12.50;8.38;;;;;;;;;;5024056;28;20045;-72
2024/03/03 04:02:42;;;;;;;16.60;9.30;;;;;;;;;;5004265;28;20551;-73
2024/03/03 04:05:09;;;;;;;13.48;8.68;;;;;;;;;;5021955;28;20045;-72
2024/03/03 04:07:37;;;;;;;14.00;8.52;;;;;;;;;;5024950;28;20080;-72
2024/03/03 04:10:03;;;;;;;13.05;8.98;;;;;;;;;;5024772;28;20065;-72
2024/03/03 04:12:30;;;;;;;13.57;9.13;;;;;;;;;;5026612;28;20049;-72
2024/03/03 04:14:56;;;;;;;15.45;8.20;;;;;;;;;;5031190;28;20037;-72
2024/03/03 04:17:22;;;;;;;16.63;9.57;;;;;;;;;;5025508;28;20079;-73
2024/03/03 04:19:48;;;;;;;16.58;9.00;;;;;;;;;;5033431;28;20040;-72
2024/03/03 04:22:14;;;;;;;13.63;8.63;;;;;;;;;;5023572;28;20049;-72
2024/03/03 04:24:40;;;;;;;16.95;9.93;;;;;;;;;;5021239;28;20446;-72
2024/03/03 04:27:07;;;;;;;16.35;9.82;;;;;;;;;;5022404;28;20103;-72
2024/03/03 04:29:33;;;;;;;15.18;9.25;;;;;;;;;;5019392;28;20460;-72
2024/03/03 04:31:59;;;;;;;13.70;9.20;;;;;;;;;;5020280;28;20038;-72
2024/03/03 04:34:26;;;;;;;17.38;9.45;;;;;;;;;;5019023;28;20125;-72
2024/03/03 04:36:52;;;;;;;15.43;9.32;;;;;;;;;;5018778;28;20045;-73
2024/03/03 04:39:19;;;;;;;14.75;9.50;;;;;;;;;;5021335;28;20481;-73
2024/03/03 04:41:47;;;;;;;15.20;9.10;;;;;;;;;;5022404;28;20125;-73
2024/03/03 04:44:13;;;;;;;16.05;10.30;;;;;;;;;;5022499;28;20136;-72
2024/03/03 04:46:40;;;;;;;16.73;9.75;;;;;;;;;;5019366;28;20090;-72
2024/03/03 04:49:06;;;;;;;14.75;9.48;;;;;;;;;;5022367;28;20120;-72
2024/03/03 04:51:32;;;;;;;15.50;9.48;;;;;;;;;;5018754;28;20045;-72
2024/03/03 04:53:59;;;;;;;15.80;9.65;;;;;;;;;;5014900;28;20041;-72
2024/03/03 04:56:27;;;;;;;17.15;9.93;;;;;;;;;;5016983;28;20231;-72
2024/03/03 04:58:53;;;;;;;19.55;10.93;;;;;;;;;;5020516;28;20045;-73
2024/03/03 05:01:19;;;;;;;14.38;9.82;;;;;;;;;;5019181;28;20057;-73
2024/03/03 05:03:46;;;;;;;16.10;10.10;;;;;;;;;;5023844;28;20045;-73
2024/03/03 05:06:12;;;;;;;14.40;10.20;;;;;;;;;;5001272;28;20042;-72
2024/03/03 05:08:38;;;;;;;17.52;10.88;;;;;;;;;;5018944;28;20369;-72
2024/03/03 05:11:06;;;;;;;14.68;10.50;;;;;;;;;;5018931;28;20071;-73
2024/03/03 05:13:33;;;;;;;15.93;10.25;;;;;;;;;;5020455;28;20096;-72
2024/03/03 05:15:59;;;;;;;16.42;10.43;;;;;;;;;;5012824;28;20088;-72
2024/03/03 05:18:25;;;;;;;15.43;9.75;;;;;;;;;;5020589;28;20072;-72
2024/03/03 05:20:51;;;;;;;13.75;9.60;;;;;;;;;;5018571;28;20108;-72
2024/03/03 05:23:19;;;;;;;14.25;10.07;;;;;;;;;;5008947;28;20165;-72
2024/03/03 05:25:45;;;;;;;14.63;9.40;;;;;;;;;;5020664;28;20999;-72
2024/03/03 05:28:11;;;;;;;15.82;10.30;;;;;;;;;;5021987;28;20051;-72
2024/03/03 05:30:40;;;;;;;16.85;10.02;;;;;;;;;;5034201;28;20494;-72
2024/03/03 05:33:07;;;;;;;18.35;11.15;;;;;;;;;;5015850;28;20501;-72
2024/03/03 05:35:33;;;;;;;15.57;10.00;;;;;;;;;;5018499;28;20504;-72
2024/03/03 05:38:00;;;;;;;14.13;10.05;;;;;;;;;;5021896;28;20045;-72
2024/03/03 05:40:27;;;;;;;15.93;10.55;;;;;;;;;;5015665;28;20076;-72
2024/03/03 05:42:53;;;;;;;17.95;10.07;;;;;;;;;;5016592;28;20037;-72
2024/03/03 05:45:19;;;;;;;16.35;10.48;;;;;;;;;;5017111;28;20041;-72
2024/03/03 05:47:46;;;;;;;17.17;10.70;;;;;;;;;;5021321;28;20049;-72
2024/03/03 05:50:12;;;;;;;15.23;9.75;;;;;;;;;;5025504;28;20116;-72
2024/03/03 05:52:38;;;;;;;15.57;9.88;;;;;;;;;;5026745;28;20478;-72
2024/03/03 05:55:04;;;;;;;15.93;10.43;;;;;;;;;;5025587;28;20056;-72
2024/03/03 05:57:31;;;;;;;17.75;10.10;;;;;;;;;;5025406;28;20548;-72
2024/03/03 05:59:57;;;;;;;16.20;9.50;;;;;;;;;;5024617;28;20047;-72
2024/03/03 06:02:23;;;;;;;15.32;9.93;;;;;;;;;;5023342;28;20037;-73
2024/03/03 06:04:50;;;;;;;15.43;9.82;;;;;;;;;;4998861;28;20080;-72
2024/03/03 06:07:16;;;;;;;14.95;10.05;;;;;;;;;;5043806;28;20040;-72
2024/03/03 06:09:42;;;;;;;15.93;10.60;;;;;;;;;;5026277;28;20099;-72
2024/03/03 06:12:09;;;;;;;14.35;9.70;;;;;;;;;;5025175;28;20053;-72
2024/03/03 06:14:35;;;;;;;17.02;10.63;;;;;;;;;;5025653;28;20068;-72
2024/03/03 06:17:01;;;;;;;16.13;10.10;;;;;;;;;;5031680;28;20079;-72
2024/03/03 06:19:28;;;;;;;16.48;10.98;;;;;;;;;;5031512;28;20057;-72
2024/03/03 06:21:54;;;;;;;18.73;10.32;;;;;;;;;;5030059;28;20040;-73
2024/03/03 06:24:20;;;;;;;16.58;10.60;;;;;;;;;;5032822;28;20399;-70
2024/03/03 06:26:47;;;;;;;17.08;10.75;;;;;;;;;;5034420;28;20061;-72
2024/03/03 06:29:14;;;;;;;15.32;10.40;;;;;;;;;;5015892;28;20101;-72
2024/03/03 06:31:44;;;;;;;17.55;10.48;;;;;;;;;;5031805;28;20163;-72
2024/03/03 06:34:11;;;;;;;16.23;10.73;;;;;;;;;;5027900;28;20079;-73
2024/03/03 06:36:37;;;;;;;16.20;10.85;;;;;;;;;;5035705;28;20052;-71
2024/03/03 06:39:04;;;;;;;16.20;10.95;;;;;;;;;;5032057;28;20050;-70
2024/03/03 06:41:31;;;;;;;16.58;10.93;;;;;;;;;;5028411;28;20427;-72
2024/03/03 06:43:58;;;;;;;15.73;10.27;;;;;;;;;;5036858;28;20055;-71
2024/03/03 06:46:24;;;;;;;15.88;10.15;;;;;;;;;;5035707;28;20524;-72
2024/03/03 06:48:50;;;;;;;15.70;9.90;;;;;;;;;;5032439;28;20045;-72
2024/03/03 06:51:16;;;;;;;17.33;10.88;;;;;;;;;;5029710;28;20057;-71
2024/03/03 06:53:42;;;;;;;17.30;11.25;;;;;;;;;;5029131;28;20045;-70
2024/03/03 06:56:13;;;;;;;17.65;10.65;;;;;;;;;;5034529;28;20049;-69
2024/03/03 06:58:40;;;;;;;17.60;11.32;;;;;;;;;;5032564;28;20127;-70
2024/03/03 07:01:06;;;;;;;17.10;10.45;;;;;;;;;;5028297;28;20421;-69
2024/03/03 07:03:58;;;;;;;20.65;11.43;;;;;;;;;;5025363;28;20059;-76
2024/03/03 07:06:24;;;;;;;16.52;9.95;;;;;;;;;;5023118;28;20574;-71
2024/03/03 07:08:50;;;;;;;20.63;11.85;;;;;;;;;;5023400;28;20041;-69
2024/03/03 07:11:17;;;;;;;15.88;10.75;;;;;;;;;;5030179;28;20370;-70
2024/03/03 07:13:43;;;;;;;18.33;11.25;;;;;;;;;;5024915;28;20044;-71
2024/03/03 07:16:09;;;;;;;17.55;10.90;;;;;;;;;;5031069;28;20052;-69
2024/03/03 07:18:35;;;;;;;19.20;13.20;;;;;;;;;;5024310;28;20519;-67
2024/03/03 07:21:01;;;;;;;17.77;11.82;;;;;;;;;;5020956;28;20053;-71
2024/03/03 07:23:28;;;;;;;18.42;11.60;;;;;;;;;;5027676;28;20046;-71
2024/03/03 07:25:54;;;;;;;18.05;11.20;;;;;;;;;;5025373;28;20125;-70
2024/03/03 07:28:20;;;;;;;19.45;11.10;;;;;;;;;;5028575;28;20053;-70
2024/03/03 07:30:46;;;;;;;17.58;11.55;;;;;;;;;;5021958;28;20092;-70
2024/03/03 07:33:12;;;;;;;19.33;11.65;;;;;;;;;;5024315;28;21677;-71
2024/03/03 07:35:40;;;;;;;17.95;12.15;;;;;;;;;;5027250;28;20101;-70
2024/03/03 07:38:07;;;;;;;17.50;11.10;;;;;;;;;;5024872;28;20045;-70
2024/03/03 07:40:37;;;;;;;18.17;11.38;;;;;;;;;;5024728;28;20037;-68
2024/03/03 07:43:04;;;;;;;19.73;11.95;;;;;;;;;;5024264;28;20119;-68
2024/03/03 07:45:30;;;;;;;19.80;11.15;;;;;;;;;;5024813;28;20053;-68
2024/03/03 07:47:56;;;;;;;18.58;12.02;;;;;;;;;;5028435;28;20044;-68
2024/03/03 07:50:23;;;;;;;17.52;11.35;;;;;;;;;;5026109;28;20159;-69
2024/03/03 07:52:49;;;;;;;17.83;12.13;;;;;;;;;;5024973;28;20088;-68
2024/03/03 07:55:15;;;;;;;18.13;11.85;;;;;;;;;;5023902;28;20521;-67
2024/03/03 07:57:41;;;;;;;18.67;12.68;;;;;;;;;;5022236;28;20067;-69
2024/03/03 08:00:08;;;;;;;19.30;12.23;;;;;;;;;;5026752;28;20053;-69
2024/03/03 08:02:34;;;;;;;16.83;11.48;;;;;;;;;;5023360;28;20107;-70
2024/03/03 08:05:00;;;;;;;41.58;14.63;;;;;;;;;;5024283;28;20451;-70
2024/03/03 08:07:28;;;;;;;26.73;14.15;;;;;;;;;;5024279;28;20132;-71
2024/03/03 08:09:54;;;;;;;19.30;12.48;;;;;;;;;;5024942;28;20080;-71
2024/03/03 08:12:20;;;;;;;19.65;12.23;;;;;;;;;;5024240;28;20132;-71
2024/03/03 08:14:47;;;;;;;18.83;11.10;;;;;;;;;;5021884;28;20048;-70
2024/03/03 08:17:13;;;;;;;20.00;12.15;;;;;;;;;;5005958;28;20575;-66
2024/03/03 08:19:39;;;;;;;20.42;13.10;;;;;;;;;;5025026;28;20437;-67
2024/03/03 08:22:05;;;;;;;19.33;11.95;;;;;;;;;;5022779;28;20049;-66
2024/03/03 08:24:32;;;;;;;17.92;11.85;;;;;;;;;;5020181;28;20064;-66
2024/03/03 08:26:59;;;;;;;17.92;11.00;;;;;;;;;;5023288;28;20044;-75
2024/03/03 08:29:25;;;;;;;17.42;11.77;;;;;;;;;;5024400;28;20065;-68
2024/03/03 08:31:51;;;;;;;18.33;12.00;;;;;;;;;;5027661;28;20042;-68
2024/03/03 08:34:17;;;;;;;19.13;12.27;;;;;;;;;;5026061;28;20076;-68
2024/03/03 08:36:43;;;;;;;20.63;12.13;;;;;;;;;;5020245;28;20045;-67
2024/03/03 08:39:11;;;;;;;19.08;12.30;;;;;;;;;;5018429;28;20037;-67
2024/03/03 08:41:41;;;;;;;20.65;12.50;;;;;;;;;;5026653;28;20045;-66
2024/03/03 08:44:07;;;;;;;22.83;12.02;;;;;;;;;;5023067;28;20073;-66
2024/03/03 08:46:33;;;;;;;20.15;12.75;;;;;;;;;;5021669;28;20045;-66
2024/03/03 08:48:59;;;;;;;19.23;12.45;;;;;;;;;;5008870;28;20111;-66
2024/03/03 08:51:27;;;;;;;20.23;12.77;;;;;;;;;;5017266;28;20045;-66
2024/03/03 08:53:53;;;;;;;17.67;12.25;;;;;;;;;;5024332;28;20041;-67
2024/03/03 08:56:19;;;;;;;20.20;12.55;;;;;;;;;;5020898;28;20113;-67
2024/03/03 08:58:45;;;;;;;18.85;11.88;;;;;;;;;;5019887;28;20456;-65
2024/03/03 09:01:14;;;;;;;17.98;12.20;;;;;;;;;;5017221;28;20057;-67
2024/03/03 09:03:42;;;;;;;17.23;11.52;;;;;;;;;;5016418;28;20508;-68
2024/03/03 09:06:08;;;;;;;16.67;11.93;;;;;;;;;;5011739;28;20452;-67
2024/03/03 09:08:36;;;;;;;18.33;11.80;;;;;;;;;;5017092;28;20107;-66
2024/03/03 09:11:06;;;;;;;18.40;11.93;;;;;;;;;;5019038;28;20072;-66
2024/03/03 09:13:34;;;;;;;17.35;11.50;;;;;;;;;;5020069;28;20073;-66
2024/03/03 09:16:00;;;;;;;16.73;11.32;;;;;;;;;;5021982;28;20037;-67
2024/03/03 09:18:27;;;;;;;17.23;11.38;;;;;;;;;;5026026;28;20058;-67
2024/03/03 09:20:53;;;;;;;17.35;10.88;;;;;;;;;;5004102;28;20469;-67
2024/03/03 09:23:19;;;;;;;18.30;11.25;;;;;;;;;;5026176;28;20516;-67
2024/03/03 09:25:45;;;;;;;19.67;11.98;;;;;;;;;;5021496;28;20438;-66
2024/03/03 09:28:12;;;;;;;17.10;11.10;;;;;;;;;;5025022;28;20121;-66
2024/03/03 09:30:38;;;;;;;14.90;10.02;;;;;;;;;;5016706;28;20065;-66
2024/03/03 09:33:04;;;;;;;15.50;10.73;;;;;;;;;;5027044;28;20049;-66
2024/03/03 09:35:30;;;;;;;17.73;10.52;;;;;;;;;;5034951;28;20061;-66
2024/03/03 09:37:57;;;;;;;18.30;10.52;;;;;;;;;;5030110;28;20105;-66
2024/03/03 09:40:23;;;;;;;16.20;10.90;;;;;;;;;;5034869;28;20041;-66
2024/03/03 09:42:50;;;;;;;15.80;10.57;;;;;;;;;;5037931;28;20045;-66
2024/03/03 09:45:19;;;;;;;15.65;10.25;;;;;;;;;;5039204;28;20416;-66
2024/03/03 09:47:46;;;;;;;16.90;11.38;;;;;;;;;;5034118;28;20053;-66
2024/03/03 09:50:14;;;;;;;17.13;11.15;;;;;;;;;;5040280;28;20127;-66
2024/03/03 09:52:42;;;;;;;20.25;10.77;;;;;;;;;;5038253;28;20108;-66
2024/03/03 09:55:10;;;;;;;15.23;10.25;;;;;;;;;;5038171;28;20045;-66
2024/03/03 09:57:37;;;;;;;14.23;10.00;;;;;;;;;;5024545;28;20044;-66
2024/03/03 10:00:04;;;;;;;19.63;11.57;;;;;;;;;;5040920;28;20469;-66
2024/03/03 10:02:31;;;;;;;17.98;10.68;;;;;;;;;;5039363;28;20103;-66
2024/03/03 10:04:58;;;;;;;15.27;10.40;;;;;;;;;;5041505;28;20045;-66
2024/03/03 10:07:26;;;;;;;15.35;10.70;;;;;;;;;;5033851;28;20370;-66
2024/03/03 10:10:05;;;;;;;16.77;10.88;;;;;;;;;;5040196;28;20053;-66
2024/03/03 10:12:32;;;;;;;18.75;11.50;;;;;;;;;;5033155;28;20120;-66
2024/03/03 10:14:58;;;;;;;15.48;10.35;;;;;;;;;;5039373;28;20157;-66
2024/03/03 10:17:25;;;;;;;17.75;10.93;;;;;;;;;;5038665;28;20046;-66
2024/03/03 10:19:51;;;;;;;16.98;10.57;;;;;;;;;;5039783;28;20069;-66
2024/03/03 10:22:19;;;;;;;16.85;10.70;;;;;;;;;;5037779;28;20078;-66
2024/03/03 10:24:45;;;;;;;15.27;10.63;;;;;;;;;;5039614;28;20425;-66
2024/03/03 10:27:18;;;;;;;14.60;10.15;;;;;;;;;;5038683;28;20037;-66
2024/03/03 10:29:47;;;;;;;14.38;10.05;;;;;;;;;;5038363;28;20068;-66
2024/03/03 10:32:13;;;;;;;13.98;9.88;;;;;;;;;;5040245;28;20454;-66
2024/03/03 10:34:41;;;;;;;15.75;10.57;;;;;;;;;;5039532;28;20124;-66
2024/03/03 10:37:08;;;;;;;15.75;11.15;;;;;;;;;;5038559;28;20112;-66
2024/03/03 10:39:36;;;;;;;14.48;9.70;;;;;;;;;;5043540;28;20050;-66
2024/03/03 10:42:09;;;;;;;15.25;11.52;;;;;;;;;;5043308;28;20485;-66
2024/03/03 10:44:35;;;;;;;16.88;10.68;;;;;;;;;;5042118;28;20056;-66
2024/03/03 10:47:01;;;;;;;15.73;10.77;;;;;;;;;;5040389;28;20104;-66
2024/03/03 10:49:28;;;;;;;14.55;10.90;;;;;;;;;;5044402;28;20200;-66
2024/03/03 10:51:58;;;;;;;17.25;12.13;;;;;;;;;;5043730;28;20043;-66
2024/03/03 10:54:24;;;;;;;17.30;9.77;;;;;;;;;;5041068;28;20530;-66
2024/03/03 10:56:51;;;;;;;18.60;11.55;;;;;;;;;;5042962;28;20404;-66
2024/03/03 10:59:17;;;;;;;18.17;11.13;;;;;;;;;;5038874;28;20068;-66
2024/03/03 11:01:44;;;;;;;17.85;11.38;;;;;;;;;;5042237;28;20044;-66
2024/03/03 11:04:11;;;;;;;15.60;10.52;;;;;;;;;;5041390;28;20041;-67
2024/03/03 11:06:38;;;;;;;12.50;9.50;;;;;;;;;;5045144;28;20064;-66
2024/03/03 11:09:06;;;;;;;12.98;9.57;;;;;;;;;;5040130;28;20481;-66
2024/03/03 11:11:33;;;;;;;18.65;11.10;;;;;;;;;;5024566;28;20372;-66
2024/03/03 11:14:04;;;;;;;15.35;10.43;;;;;;;;;;5045138;28;20175;-66
2024/03/03 11:16:30;;;;;;;15.27;10.45;;;;;;;;;;5042452;28;20045;-66
2024/03/03 11:19:00;;;;;;;14.85;10.50;;;;;;;;;;5043628;28;20516;-67
2024/03/03 11:21:29;;;;;;;14.77;10.73;;;;;;;;;;5041378;28;20053;-66
2024/03/03 11:24:01;;;;;;;14.35;10.70;;;;;;;;;;5044500;28;20049;-66
2024/03/03 11:26:31;;;;;;;14.23;10.80;;;;;;;;;;5039654;28;20128;-67
2024/03/03 11:28:58;;;;;;;13.02;9.90;;;;;;;;;;5042095;28;20056;-67
2024/03/03 11:31:25;;;;;;;15.30;10.70;;;;;;;;;;5036519;28;20050;-67
2024/03/03 11:33:53;;;;;;;15.32;9.98;;;;;;;;;;5040024;28;20120;-67
2024/03/03 11:36:20;;;;;;;14.13;9.98;;;;;;;;;;5041907;28;20049;-66
2024/03/03 11:38:46;;;;;;;16.20;9.68;;;;;;;;;;5039467;28;20037;-67
2024/03/03 11:41:13;;;;;;;12.60;9.90;;;;;;;;;;5037165;28;20033;-67
2024/03/03 11:43:40;;;;;;;13.10;9.57;;;;;;;;;;5040702;28;20091;-67
2024/03/03 11:46:06;;;;;;;14.48;9.43;;;;;;;;;;5041107;28;20083;-67
2024/03/03 11:48:34;;;;;;;13.18;9.27;;;;;;;;;;5040923;28;20056;-67
2024/03/03 11:51:19;;;;;;;15.68;10.43;;;;;;;;;;5042709;28;20049;-67
2024/03/03 11:53:57;;;;;;;12.70;9.52;;;;;;;;;;5039196;28;20064;-67
2024/03/03 11:56:23;;;;;;;11.68;9.23;;;;;;;;;;5042505;28;20053;-67
2024/03/03 11:58:50;;;;;;;13.02;9.25;;;;;;;;;;5042593;28;20459;-67
2024/03/03 12:01:22;;;;;;;12.10;9.23;;;;;;;;;;5020599;28;20041;-67
2024/03/03 12:03:49;;;;;;;12.48;9.88;;;;;;;;;;5042355;28;20120;-67
2024/03/03 12:06:20;;;;;;;13.57;9.73;;;;;;;;;;5043268;28;20057;-67
2024/03/03 12:08:50;;;;;;;12.68;8.90;;;;;;;;;;5040198;28;20056;-67
2024/03/03 12:11:16;;;;;;;12.23;9.13;;;;;;;;;;5041619;28;20485;-67
2024/03/03 12:13:43;;;;;;;17.73;10.55;;;;;;;;;;5040093;28;20362;-67
2024/03/03 12:16:09;;;;;;;14.75;9.15;;;;;;;;;;5041687;28;20489;-67
2024/03/03 12:18:36;;;;;;;12.88;8.90;;;;;;;;;;5042553;28;20552;-67
2024/03/03 12:21:02;;;;;;;15.43;10.50;;;;;;;;;;5043544;28;20041;-67
2024/03/03 12:23:29;;;;;;;15.10;11.13;;;;;;;;;;5040422;28;20552;-66
2024/03/03 12:25:55;;;;;;;17.25;12.00;;;;;;;;;;5043969;28;20122;-66
2024/03/03 12:28:23;;;;;;;18.17;13.95;;;;;;;;;;5038907;28;20041;-67
2024/03/03 12:30:50;;;;;;;16.48;12.45;;;;;;;;;;5041490;28;20128;-66
2024/03/03 12:33:17;;;;;;;14.75;10.52;;;;;;;;;;5046578;28;20186;-67
2024/03/03 12:35:45;;;;;;;14.77;10.48;;;;;;;;;;5038661;28;20071;-67
2024/03/03 12:38:12;;;;;;;14.93;10.65;;;;;;;;;;5043766;28;20077;-67
2024/03/03 12:40:39;;;;;;;13.93;10.50;;;;;;;;;;5039831;28;20467;-67
2024/03/03 12:43:05;;;;;;;17.98;11.13;;;;;;;;;;5038877;28;20048;-67
2024/03/03 12:45:32;;;;;;;13.73;10.50;;;;;;;;;;5039854;28;20397;-67
2024/03/03 12:47:58;;;;;;;15.93;11.07;;;;;;;;;;5041947;28;20048;-67
2024/03/03 12:50:25;;;;;;;13.13;9.85;;;;;;;;;;5040274;28;20045;-67
2024/03/03 12:52:51;;;;;;;13.48;9.95;;;;;;;;;;5038267;28;20076;-67
2024/03/03 12:55:18;;;;;;;18.83;14.40;;;;;;;;;;5041634;28;20442;-67
2024/03/03 12:57:44;;;;;;;14.73;11.95;;;;;;;;;;5040664;28;20042;-67
2024/03/03 13:00:14;;;;;;;14.32;10.90;;;;;;;;;;5033724;28;20129;-67
2024/03/03 13:02:42;;;;;;;15.45;11.07;;;;;;;;;;5041494;28;20053;-67
2024/03/03 13:05:09;;;;;;;13.23;10.45;;;;;;;;;;5020382;28;20462;-67
2024/03/03 13:07:35;;;;;;;16.27;11.30;;;;;;;;;;5041879;28;20720;-67
2024/03/03 13:10:12;;;;;;;13.93;11.32;;;;;;;;;;5039815;28;20041;-67
2024/03/03 13:12:39;;;;;;;14.23;11.25;;;;;;;;;;5040588;28;20083;-67
2024/03/03 13:15:06;;;;;;;15.90;11.52;;;;;;;;;;5038621;28;20041;-67
2024/03/03 13:17:33;;;;;;;13.07;9.75;;;;;;;;;;5024280;28;20053;-67
2024/03/03 13:19:59;;;;;;;11.95;8.27;;;;;;;;;;5031174;28;20410;-67
2024/03/03 13:22:25;;;;;;;12.80;8.07;;;;;;;;;;5023043;28;20041;-67
2024/03/03 13:24:53;;;;;;;10.70;8.15;;;;;;;;;;5039540;28;20048;-67
2024/03/03 13:27:19;;;;;;;12.13;9.25;;;;;;;;;;5038171;28;20090;-67
2024/03/03 13:29:47;;;;;;;13.65;10.60;;;;;;;;;;5036633;28;20045;-67
2024/03/03 13:32:13;;;;;;;13.85;10.15;;;;;;;;;;5041729;28;20052;-67
2024/03/03 13:34:41;;;;;;;12.90;9.93;;;;;;;;;;5058839;28;20041;-67
2024/03/03 13:37:07;;;;;;;13.57;9.23;;;;;;;;;;5040906;28;20472;-67
2024/03/03 13:39:34;;;;;;;13.82;12.30;;;;;;;;;;5037349;28;20423;-67
2024/03/03 13:42:00;;;;;;;17.48;10.32;;;;;;;;;;5060822;28;20107;-67
2024/03/03 13:44:27;;;;;;;13.63;9.10;;;;;;;;;;5059572;28;20053;-67
2024/03/03 13:46:53;;;;;;;15.85;10.43;;;;;;;;;;5059818;28;20041;-67
2024/03/03 13:49:19;;;;;;;14.25;11.15;;;;;;;;;;5058890;28;20111;-67
2024/03/03 13:51:45;;;;;;;17.77;11.73;;;;;;;;;;5047424;28;20048;-67
2024/03/03 13:54:13;;;;;;;16.05;11.52;;;;;;;;;;5057011;28;20041;-67
2024/03/03 13:56:40;;;;;;;16.13;10.30;;;;;;;;;;5041797;28;20040;-67
2024/03/03 13:59:07;;;;;;;15.63;11.70;;;;;;;;;;5040583;28;20119;-66
2024/03/03 14:01:33;;;;;;;16.95;11.88;;;;;;;;;;5060530;28;20041;-66
2024/03/03 14:04:02;;;;;;;17.25;12.30;;;;;;;;;;5059289;28;20060;-66
2024/03/03 14:06:29;;;;;;;17.80;12.77;;;;;;;;;;5038482;28;20057;-67
2024/03/03 14:08:55;;;;;;;20.27;14.80;;;;;;;;;;5064280;28;20036;-67
2024/03/03 14:11:21;;;;;;;18.15;14.88;;;;;;;;;;5056651;28;20073;-66
2024/03/03 14:13:48;;;;;;;18.85;14.70;;;;;;;;;;5045061;28;20398;-67
2024/03/03 14:16:14;;;;;;;21.55;17.30;;;;;;;;;;5064893;28;20092;-67
2024/03/03 14:18:40;;;;;;;18.20;14.70;;;;;;;;;;5042300;28;20080;-66
2024/03/03 14:21:06;;;;;;;17.75;13.57;;;;;;;;;;5064475;28;20033;-66
2024/03/03 14:23:32;;;;;;;20.50;13.85;;;;;;;;;;5062455;28;20049;-67